sensor_id;sensor_type;location;lat;lon;timestamp;P1;durP1;ratioP1;P2;durP2;ratioP2
46765;SDS011;32527;51.986;5.842;2023-02-18T00:01:48;56.60;;;25.00;;
46765;SDS011;32527;51.986;5.842;2023-02-18T00:09:45;70.10;;;26.83;;
46765;SDS011;32527;51.986;5.842;2023-02-18T00:12:33;73.07;;;28.95;;
46765;SDS011;32527;51.986;5.842;2023-02-18T00:14:59;71.30;;;28.85;;
46765;SDS011;32527;51.986;5.842;2023-02-18T00:17:27;82.40;;;30.77;;
46765;SDS011;32527;51.986;5.842;2023-02-18T00:19:53;79.18;;;30.98;;
46765;SDS011;32527;51.986;5.842;2023-02-18T00:22:19;82.63;;;32.40;;
46765;SDS011;32527;51.986;5.842;2023-02-18T00:24:45;70.32;;;27.60;;
46765;SDS011;32527;51.986;5.842;2023-02-18T00:27:11;93.82;;;30.95;;
46765;SDS011;32527;51.986;5.842;2023-02-18T00:29:37;91.15;;;30.35;;
46765;SDS011;32527;51.986;5.842;2023-02-18T00:32:06;87.07;;;29.25;;
46765;SDS011;32527;51.986;5.842;2023-02-18T00:34:34;82.97;;;27.88;;
46765;SDS011;32527;51.986;5.842;2023-02-18T00:37:02;87.03;;;28.88;;
46765;SDS011;32527;51.986;5.842;2023-02-18T00:39:28;74.50;;;27.60;;
46765;SDS011;32527;51.986;5.842;2023-02-18T00:41:54;76.40;;;27.77;;
46765;SDS011;32527;51.986;5.842;2023-02-18T00:44:20;89.75;;;30.27;;
46765;SDS011;32527;51.986;5.842;2023-02-18T00:46:46;79.95;;;28.50;;
46765;SDS011;32527;51.986;5.842;2023-02-18T00:49:13;79.82;;;29.08;;
46765;SDS011;32527;51.986;5.842;2023-02-18T00:51:40;92.10;;;31.88;;
46765;SDS011;32527;51.986;5.842;2023-02-18T00:54:06;74.18;;;28.10;;
46765;SDS011;32527;51.986;5.842;2023-02-18T00:56:32;84.50;;;28.73;;
46765;SDS011;32527;51.986;5.842;2023-02-18T00:58:58;76.60;;;28.15;;
46765;SDS011;32527;51.986;5.842;2023-02-18T01:01:24;75.07;;;28.77;;
46765;SDS011;32527;51.986;5.842;2023-02-18T01:03:51;92.82;;;29.55;;
46765;SDS011;32527;51.986;5.842;2023-02-18T01:06:18;80.55;;;27.48;;
46765;SDS011;32527;51.986;5.842;2023-02-18T01:08:46;83.47;;;27.55;;
46765;SDS011;32527;51.986;5.842;2023-02-18T01:11:13;90.82;;;28.90;;
46765;SDS011;32527;51.986;5.842;2023-02-18T01:13:39;75.40;;;28.70;;
46765;SDS011;32527;51.986;5.842;2023-02-18T01:16:09;84.22;;;30.00;;
46765;SDS011;32527;51.986;5.842;2023-02-18T01:18:35;74.65;;;29.15;;
46765;SDS011;32527;51.986;5.842;2023-02-18T01:21:03;74.15;;;25.70;;
46765;SDS011;32527;51.986;5.842;2023-02-18T01:23:34;70.82;;;25.85;;
46765;SDS011;32527;51.986;5.842;2023-02-18T01:26:01;64.22;;;24.25;;
46765;SDS011;32527;51.986;5.842;2023-02-18T01:28:28;68.22;;;27.60;;
46765;SDS011;32527;51.986;5.842;2023-02-18T01:30:54;71.30;;;24.20;;
46765;SDS011;32527;51.986;5.842;2023-02-18T01:33:20;65.15;;;22.15;;
46765;SDS011;32527;51.986;5.842;2023-02-18T01:35:46;62.63;;;23.48;;
46765;SDS011;32527;51.986;5.842;2023-02-18T01:38:12;68.88;;;23.58;;
46765;SDS011;32527;51.986;5.842;2023-02-18T01:40:49;70.93;;;22.55;;
46765;SDS011;32527;51.986;5.842;2023-02-18T01:43:16;59.13;;;23.13;;
46765;SDS011;32527;51.986;5.842;2023-02-18T01:51:02;67.18;;;23.35;;
46765;SDS011;32527;51.986;5.842;2023-02-18T01:53:49;67.55;;;23.95;;
46765;SDS011;32527;51.986;5.842;2023-02-18T01:58:56;68.03;;;24.10;;
46765;SDS011;32527;51.986;5.842;2023-02-18T02:01:24;65.60;;;25.85;;
46765;SDS011;32527;51.986;5.842;2023-02-18T02:03:50;65.80;;;26.73;;
46765;SDS011;32527;51.986;5.842;2023-02-18T02:06:17;85.32;;;30.00;;
46765;SDS011;32527;51.986;5.842;2023-02-18T02:08:48;95.03;;;30.65;;
46765;SDS011;32527;51.986;5.842;2023-02-18T02:11:20;87.45;;;34.15;;
46765;SDS011;32527;51.986;5.842;2023-02-18T02:17:08;91.13;;;32.40;;
46765;SDS011;32527;51.986;5.842;2023-02-18T02:19:56;95.75;;;34.22;;
46765;SDS011;32527;51.986;5.842;2023-02-18T02:30:56;84.68;;;30.65;;
46765;SDS011;32527;51.986;5.842;2023-02-18T02:37:09;84.85;;;29.83;;
46765;SDS011;32527;51.986;5.842;2023-02-18T02:39:20;79.43;;;30.70;;
46765;SDS011;32527;51.986;5.842;2023-02-18T02:42:18;95.97;;;33.30;;
46765;SDS011;32527;51.986;5.842;2023-02-18T02:47:44;89.20;;;32.15;;
46765;SDS011;32527;51.986;5.842;2023-02-18T02:52:51;86.57;;;30.38;;
46765;SDS011;32527;51.986;5.842;2023-02-18T02:55:23;96.90;;;32.33;;
46765;SDS011;32527;51.986;5.842;2023-02-18T02:57:52;104.53;;;35.38;;
46765;SDS011;32527;51.986;5.842;2023-02-18T03:00:30;106.15;;;35.72;;
46765;SDS011;32527;51.986;5.842;2023-02-18T03:08:38;104.35;;;38.45;;
46765;SDS011;32527;51.986;5.842;2023-02-18T03:11:20;123.25;;;37.38;;
46765;SDS011;32527;51.986;5.842;2023-02-18T03:19:04;121.20;;;37.85;;
46765;SDS011;32527;51.986;5.842;2023-02-18T03:22:24;125.97;;;38.65;;
46765;SDS011;32527;51.986;5.842;2023-02-18T03:24:29;112.65;;;35.60;;
46765;SDS011;32527;51.986;5.842;2023-02-18T03:27:22;122.10;;;34.60;;
46765;SDS011;32527;51.986;5.842;2023-02-18T03:32:23;88.05;;;28.17;;
46765;SDS011;32527;51.986;5.842;2023-02-18T03:34:56;107.63;;;29.60;;
46765;SDS011;32527;51.986;5.842;2023-02-18T03:39:56;88.65;;;28.83;;
46765;SDS011;32527;51.986;5.842;2023-02-18T03:42:27;85.50;;;28.98;;
46765;SDS011;32527;51.986;5.842;2023-02-18T03:44:53;83.32;;;27.75;;
46765;SDS011;32527;51.986;5.842;2023-02-18T03:47:22;82.50;;;25.63;;
46765;SDS011;32527;51.986;5.842;2023-02-18T03:49:51;71.10;;;24.42;;
46765;SDS011;32527;51.986;5.842;2023-02-18T03:52:20;77.78;;;24.58;;
46765;SDS011;32527;51.986;5.842;2023-02-18T03:54:45;69.07;;;23.77;;
46765;SDS011;32527;51.986;5.842;2023-02-18T03:57:12;63.90;;;21.45;;
46765;SDS011;32527;51.986;5.842;2023-02-18T03:59:38;63.47;;;19.85;;
46765;SDS011;32527;51.986;5.842;2023-02-18T04:02:04;61.10;;;19.80;;
46765;SDS011;32527;51.986;5.842;2023-02-18T04:04:30;60.50;;;20.95;;
46765;SDS011;32527;51.986;5.842;2023-02-18T04:06:56;49.92;;;17.77;;
46765;SDS011;32527;51.986;5.842;2023-02-18T04:09:22;47.83;;;16.13;;
46765;SDS011;32527;51.986;5.842;2023-02-18T04:11:49;40.58;;;15.93;;
46765;SDS011;32527;51.986;5.842;2023-02-18T04:14:15;40.03;;;15.48;;
46765;SDS011;32527;51.986;5.842;2023-02-18T04:16:41;41.22;;;15.95;;
46765;SDS011;32527;51.986;5.842;2023-02-18T04:19:07;46.22;;;17.33;;
46765;SDS011;32527;51.986;5.842;2023-02-18T04:21:33;46.58;;;16.30;;
46765;SDS011;32527;51.986;5.842;2023-02-18T04:23:59;35.13;;;15.15;;
46765;SDS011;32527;51.986;5.842;2023-02-18T04:26:25;46.05;;;18.23;;
46765;SDS011;32527;51.986;5.842;2023-02-18T04:28:51;49.47;;;18.60;;
46765;SDS011;32527;51.986;5.842;2023-02-18T04:31:17;45.53;;;16.67;;
46765;SDS011;32527;51.986;5.842;2023-02-18T04:33:43;42.13;;;17.13;;
46765;SDS011;32527;51.986;5.842;2023-02-18T04:36:09;51.10;;;18.00;;
46765;SDS011;32527;51.986;5.842;2023-02-18T04:38:36;46.60;;;14.23;;
46765;SDS011;32527;51.986;5.842;2023-02-18T04:41:02;43.10;;;16.60;;
46765;SDS011;32527;51.986;5.842;2023-02-18T04:43:30;42.05;;;15.07;;
46765;SDS011;32527;51.986;5.842;2023-02-18T04:45:56;41.90;;;15.18;;
46765;SDS011;32527;51.986;5.842;2023-02-18T04:48:22;37.45;;;11.95;;
46765;SDS011;32527;51.986;5.842;2023-02-18T04:50:48;41.00;;;13.18;;
46765;SDS011;32527;51.986;5.842;2023-02-18T04:53:14;39.70;;;12.48;;
46765;SDS011;32527;51.986;5.842;2023-02-18T04:55:40;31.55;;;12.93;;
46765;SDS011;32527;51.986;5.842;2023-02-18T04:58:06;30.50;;;11.30;;
46765;SDS011;32527;51.986;5.842;2023-02-18T05:00:34;33.70;;;12.52;;
46765;SDS011;32527;51.986;5.842;2023-02-18T05:03:00;30.48;;;11.57;;
46765;SDS011;32527;51.986;5.842;2023-02-18T05:05:26;26.92;;;11.38;;
46765;SDS011;32527;51.986;5.842;2023-02-18T05:07:52;26.05;;;10.95;;
46765;SDS011;32527;51.986;5.842;2023-02-18T05:10:18;30.63;;;10.90;;
46765;SDS011;32527;51.986;5.842;2023-02-18T05:12:44;25.27;;;10.60;;
46765;SDS011;32527;51.986;5.842;2023-02-18T05:15:11;25.83;;;11.07;;
46765;SDS011;32527;51.986;5.842;2023-02-18T05:17:38;29.13;;;10.10;;
46765;SDS011;32527;51.986;5.842;2023-02-18T05:20:04;26.33;;;10.00;;
46765;SDS011;32527;51.986;5.842;2023-02-18T05:22:30;23.40;;;10.13;;
46765;SDS011;32527;51.986;5.842;2023-02-18T05:24:57;24.83;;;9.38;;
46765;SDS011;32527;51.986;5.842;2023-02-18T05:27:23;21.33;;;9.40;;
46765;SDS011;32527;51.986;5.842;2023-02-18T05:29:49;23.30;;;9.98;;
46765;SDS011;32527;51.986;5.842;2023-02-18T05:32:15;16.70;;;8.95;;
46765;SDS011;32527;51.986;5.842;2023-02-18T05:34:41;18.58;;;8.18;;
46765;SDS011;32527;51.986;5.842;2023-02-18T05:37:07;20.80;;;8.35;;
46765;SDS011;32527;51.986;5.842;2023-02-18T05:39:33;17.95;;;8.32;;
46765;SDS011;32527;51.986;5.842;2023-02-18T05:41:59;14.63;;;7.47;;
46765;SDS011;32527;51.986;5.842;2023-02-18T05:44:26;15.88;;;7.82;;
46765;SDS011;32527;51.986;5.842;2023-02-18T05:46:57;13.23;;;7.53;;
46765;SDS011;32527;51.986;5.842;2023-02-18T05:49:24;15.48;;;7.60;;
46765;SDS011;32527;51.986;5.842;2023-02-18T05:51:51;16.02;;;7.03;;
46765;SDS011;32527;51.986;5.842;2023-02-18T05:54:17;15.52;;;6.95;;
46765;SDS011;32527;51.986;5.842;2023-02-18T05:56:43;16.35;;;7.45;;
46765;SDS011;32527;51.986;5.842;2023-02-18T05:59:09;15.63;;;8.15;;
46765;SDS011;32527;51.986;5.842;2023-02-18T06:01:35;16.17;;;8.02;;
46765;SDS011;32527;51.986;5.842;2023-02-18T06:04:01;15.35;;;8.90;;
46765;SDS011;32527;51.986;5.842;2023-02-18T06:06:27;17.77;;;8.32;;
46765;SDS011;32527;51.986;5.842;2023-02-18T06:08:53;15.55;;;8.25;;
46765;SDS011;32527;51.986;5.842;2023-02-18T06:11:19;15.75;;;6.80;;
46765;SDS011;32527;51.986;5.842;2023-02-18T06:13:45;16.42;;;7.40;;
46765;SDS011;32527;51.986;5.842;2023-02-18T06:16:11;14.23;;;7.13;;
46765;SDS011;32527;51.986;5.842;2023-02-18T06:18:37;13.82;;;7.32;;
46765;SDS011;32527;51.986;5.842;2023-02-18T06:21:03;24.77;;;10.35;;
46765;SDS011;32527;51.986;5.842;2023-02-18T06:23:29;21.33;;;9.73;;
46765;SDS011;32527;51.986;5.842;2023-02-18T06:25:55;21.13;;;11.50;;
46765;SDS011;32527;51.986;5.842;2023-02-18T06:28:21;27.90;;;11.65;;
46765;SDS011;32527;51.986;5.842;2023-02-18T06:30:48;20.98;;;10.85;;
46765;SDS011;32527;51.986;5.842;2023-02-18T06:33:14;23.10;;;11.10;;
46765;SDS011;32527;51.986;5.842;2023-02-18T06:35:40;22.38;;;12.30;;
46765;SDS011;32527;51.986;5.842;2023-02-18T06:38:06;23.58;;;10.90;;
46765;SDS011;32527;51.986;5.842;2023-02-18T06:40:32;25.20;;;11.70;;
46765;SDS011;32527;51.986;5.842;2023-02-18T06:42:58;26.00;;;11.10;;
46765;SDS011;32527;51.986;5.842;2023-02-18T06:45:24;26.63;;;12.40;;
46765;SDS011;32527;51.986;5.842;2023-02-18T06:47:50;30.42;;;13.50;;
46765;SDS011;32527;51.986;5.842;2023-02-18T06:50:16;24.80;;;11.82;;
46765;SDS011;32527;51.986;5.842;2023-02-18T06:52:43;27.42;;;12.15;;
46765;SDS011;32527;51.986;5.842;2023-02-18T06:55:09;23.33;;;11.20;;
46765;SDS011;32527;51.986;5.842;2023-02-18T06:57:35;25.75;;;10.90;;
46765;SDS011;32527;51.986;5.842;2023-02-18T07:00:02;22.13;;;9.95;;
46765;SDS011;32527;51.986;5.842;2023-02-18T07:02:29;23.90;;;11.05;;
46765;SDS011;32527;51.986;5.842;2023-02-18T07:04:55;20.00;;;9.85;;
46765;SDS011;32527;51.986;5.842;2023-02-18T07:07:21;23.00;;;10.75;;
46765;SDS011;32527;51.986;5.842;2023-02-18T07:09:47;25.70;;;10.68;;
46765;SDS011;32527;51.986;5.842;2023-02-18T07:12:13;26.83;;;11.82;;
46765;SDS011;32527;51.986;5.842;2023-02-18T07:14:39;23.42;;;12.30;;
46765;SDS011;32527;51.986;5.842;2023-02-18T07:17:05;26.73;;;12.90;;
46765;SDS011;32527;51.986;5.842;2023-02-18T07:19:31;27.58;;;12.77;;
46765;SDS011;32527;51.986;5.842;2023-02-18T07:21:57;28.25;;;13.50;;
46765;SDS011;32527;51.986;5.842;2023-02-18T07:24:24;28.48;;;12.88;;
46765;SDS011;32527;51.986;5.842;2023-02-18T07:26:50;35.45;;;13.50;;
46765;SDS011;32527;51.986;5.842;2023-02-18T07:29:16;27.85;;;13.23;;
46765;SDS011;32527;51.986;5.842;2023-02-18T07:31:42;28.42;;;12.95;;
46765;SDS011;32527;51.986;5.842;2023-02-18T07:34:08;32.03;;;13.52;;
46765;SDS011;32527;51.986;5.842;2023-02-18T07:36:35;26.05;;;13.10;;
46765;SDS011;32527;51.986;5.842;2023-02-18T07:39:02;29.92;;;13.13;;
46765;SDS011;32527;51.986;5.842;2023-02-18T07:41:28;24.15;;;12.15;;
46765;SDS011;32527;51.986;5.842;2023-02-18T07:43:54;28.30;;;12.68;;
46765;SDS011;32527;51.986;5.842;2023-02-18T07:46:21;25.70;;;12.30;;
46765;SDS011;32527;51.986;5.842;2023-02-18T07:48:47;30.75;;;12.38;;
46765;SDS011;32527;51.986;5.842;2023-02-18T07:51:13;30.08;;;12.15;;
46765;SDS011;32527;51.986;5.842;2023-02-18T07:53:39;23.90;;;11.60;;
46765;SDS011;32527;51.986;5.842;2023-02-18T07:56:05;27.73;;;11.88;;
46765;SDS011;32527;51.986;5.842;2023-02-18T07:58:32;24.58;;;10.80;;
46765;SDS011;32527;51.986;5.842;2023-02-18T08:01:03;26.52;;;12.05;;
46765;SDS011;32527;51.986;5.842;2023-02-18T08:03:33;35.63;;;11.48;;
46765;SDS011;32527;51.986;5.842;2023-02-18T08:05:59;28.38;;;11.02;;
46765;SDS011;32527;51.986;5.842;2023-02-18T08:08:28;30.67;;;13.63;;
46765;SDS011;32527;51.986;5.842;2023-02-18T08:10:57;33.58;;;11.77;;
46765;SDS011;32527;51.986;5.842;2023-02-18T08:13:25;29.63;;;10.13;;
46765;SDS011;32527;51.986;5.842;2023-02-18T08:15:53;31.50;;;9.85;;
46765;SDS011;32527;51.986;5.842;2023-02-18T08:18:20;34.10;;;9.95;;
46765;SDS011;32527;51.986;5.842;2023-02-18T08:20:47;28.02;;;9.77;;
46765;SDS011;32527;51.986;5.842;2023-02-18T08:23:14;40.60;;;9.88;;
46765;SDS011;32527;51.986;5.842;2023-02-18T08:25:45;21.90;;;7.93;;
46765;SDS011;32527;51.986;5.842;2023-02-18T08:28:11;35.17;;;8.80;;
46765;SDS011;32527;51.986;5.842;2023-02-18T08:30:37;37.08;;;8.10;;
46765;SDS011;32527;51.986;5.842;2023-02-18T08:33:03;21.67;;;7.15;;
46765;SDS011;32527;51.986;5.842;2023-02-18T08:35:29;27.70;;;7.65;;
46765;SDS011;32527;51.986;5.842;2023-02-18T08:37:56;34.20;;;7.60;;
46765;SDS011;32527;51.986;5.842;2023-02-18T08:40:22;29.33;;;6.40;;
46765;SDS011;32527;51.986;5.842;2023-02-18T08:42:48;29.77;;;6.72;;
46765;SDS011;32527;51.986;5.842;2023-02-18T08:45:15;19.00;;;6.53;;
46765;SDS011;32527;51.986;5.842;2023-02-18T08:47:41;26.75;;;6.88;;
46765;SDS011;32527;51.986;5.842;2023-02-18T08:50:07;19.13;;;5.95;;
46765;SDS011;32527;51.986;5.842;2023-02-18T08:52:33;23.60;;;5.13;;
46765;SDS011;32527;51.986;5.842;2023-02-18T08:54:59;29.25;;;5.47;;
46765;SDS011;32527;51.986;5.842;2023-02-18T08:57:26;16.50;;;5.35;;
46765;SDS011;32527;51.986;5.842;2023-02-18T08:59:52;25.63;;;4.85;;
46765;SDS011;32527;51.986;5.842;2023-02-18T09:02:18;26.45;;;4.80;;
46765;SDS011;32527;51.986;5.842;2023-02-18T09:04:46;19.58;;;5.15;;
46765;SDS011;32527;51.986;5.842;2023-02-18T09:07:21;29.08;;;5.00;;
46765;SDS011;32527;51.986;5.842;2023-02-18T09:09:47;19.67;;;5.32;;
46765;SDS011;32527;51.986;5.842;2023-02-18T09:12:13;18.08;;;4.60;;
46765;SDS011;32527;51.986;5.842;2023-02-18T09:14:39;19.35;;;4.40;;
46765;SDS011;32527;51.986;5.842;2023-02-18T09:17:08;14.75;;;4.05;;
46765;SDS011;32527;51.986;5.842;2023-02-18T09:19:35;18.58;;;5.00;;
46765;SDS011;32527;51.986;5.842;2023-02-18T09:22:01;17.20;;;5.50;;
46765;SDS011;32527;51.986;5.842;2023-02-18T09:24:27;19.75;;;4.80;;
46765;SDS011;32527;51.986;5.842;2023-02-18T09:26:53;22.05;;;5.22;;
46765;SDS011;32527;51.986;5.842;2023-02-18T09:29:19;22.38;;;5.22;;
46765;SDS011;32527;51.986;5.842;2023-02-18T09:31:45;18.42;;;5.18;;
46765;SDS011;32527;51.986;5.842;2023-02-18T09:34:14;23.52;;;5.55;;
46765;SDS011;32527;51.986;5.842;2023-02-18T09:36:41;26.02;;;6.30;;
46765;SDS011;32527;51.986;5.842;2023-02-18T09:39:07;19.95;;;5.13;;
46765;SDS011;32527;51.986;5.842;2023-02-18T09:46:51;16.58;;;6.85;;
46765;SDS011;32527;51.986;5.842;2023-02-18T09:49:22;19.45;;;6.45;;
46765;SDS011;32527;51.986;5.842;2023-02-18T09:51:51;18.33;;;5.68;;
46765;SDS011;32527;51.986;5.842;2023-02-18T09:54:19;25.75;;;7.00;;
46765;SDS011;32527;51.986;5.842;2023-02-18T09:56:45;21.58;;;6.05;;
46765;SDS011;32527;51.986;5.842;2023-02-18T09:59:14;22.23;;;5.60;;
46765;SDS011;32527;51.986;5.842;2023-02-18T10:01:42;17.80;;;5.95;;
46765;SDS011;32527;51.986;5.842;2023-02-18T10:04:19;15.73;;;5.00;;
46765;SDS011;32527;51.986;5.842;2023-02-18T10:06:56;15.90;;;5.45;;
46765;SDS011;32527;51.986;5.842;2023-02-18T10:09:24;31.33;;;6.82;;
46765;SDS011;32527;51.986;5.842;2023-02-18T10:12:00;13.18;;;5.43;;
46765;SDS011;32527;51.986;5.842;2023-02-18T10:14:42;15.75;;;5.88;;
46765;SDS011;32527;51.986;5.842;2023-02-18T10:17:15;20.70;;;5.80;;
46765;SDS011;32527;51.986;5.842;2023-02-18T10:19:41;20.80;;;5.65;;
46765;SDS011;32527;51.986;5.842;2023-02-18T10:22:08;20.42;;;5.07;;
46765;SDS011;32527;51.986;5.842;2023-02-18T10:24:40;20.17;;;5.32;;
46765;SDS011;32527;51.986;5.842;2023-02-18T10:27:07;23.85;;;4.97;;
46765;SDS011;32527;51.986;5.842;2023-02-18T10:29:33;20.10;;;4.85;;
46765;SDS011;32527;51.986;5.842;2023-02-18T10:32:04;18.58;;;5.13;;
46765;SDS011;32527;51.986;5.842;2023-02-18T10:37:26;21.70;;;5.57;;
46765;SDS011;32527;51.986;5.842;2023-02-18T10:43:07;12.57;;;5.20;;
46765;SDS011;32527;51.986;5.842;2023-02-18T10:45:55;19.63;;;5.60;;
46765;SDS011;32527;51.986;5.842;2023-02-18T10:50:54;23.42;;;6.00;;
46765;SDS011;32527;51.986;5.842;2023-02-18T10:53:26;20.55;;;6.97;;
46765;SDS011;32527;51.986;5.842;2023-02-18T11:07:03;26.38;;;6.00;;
46765;SDS011;32527;51.986;5.842;2023-02-18T11:10:21;29.55;;;7.47;;
46765;SDS011;32527;51.986;5.842;2023-02-18T11:12:51;21.65;;;6.50;;
46765;SDS011;32527;51.986;5.842;2023-02-18T11:15:30;27.83;;;11.32;;
46765;SDS011;32527;51.986;5.842;2023-02-18T11:18:27;23.98;;;8.18;;
46765;SDS011;32527;51.986;5.842;2023-02-18T11:24:11;26.98;;;6.35;;
46765;SDS011;32527;51.986;5.842;2023-02-18T11:26:40;22.48;;;6.85;;
46765;SDS011;32527;51.986;5.842;2023-02-18T11:29:13;23.17;;;7.13;;
46765;SDS011;32527;51.986;5.842;2023-02-18T11:31:45;26.15;;;10.05;;
46765;SDS011;32527;51.986;5.842;2023-02-18T11:37:20;16.95;;;6.63;;
46765;SDS011;32527;51.986;5.842;2023-02-18T11:39:48;23.30;;;7.15;;
46765;SDS011;32527;51.986;5.842;2023-02-18T11:42:21;24.02;;;7.72;;
46765;SDS011;32527;51.986;5.842;2023-02-18T11:44:57;32.50;;;7.80;;
46765;SDS011;32527;51.986;5.842;2023-02-18T11:47:30;20.92;;;7.10;;
46765;SDS011;32527;51.986;5.842;2023-02-18T11:52:43;18.63;;;7.85;;
46765;SDS011;32527;51.986;5.842;2023-02-18T11:55:16;18.42;;;7.35;;
46765;SDS011;32527;51.986;5.842;2023-02-18T11:57:43;23.73;;;7.38;;
46765;SDS011;32527;51.986;5.842;2023-02-18T12:02:47;19.90;;;7.13;;
46765;SDS011;32527;51.986;5.842;2023-02-18T12:05:16;19.35;;;6.85;;
46765;SDS011;32527;51.986;5.842;2023-02-18T12:10:30;20.92;;;9.60;;
46765;SDS011;32527;51.986;5.842;2023-02-18T12:13:29;20.88;;;7.82;;
46765;SDS011;32527;51.986;5.842;2023-02-18T12:21:57;29.05;;;8.77;;
46765;SDS011;32527;51.986;5.842;2023-02-18T12:27:04;26.42;;;8.10;;
46765;SDS011;32527;51.986;5.842;2023-02-18T12:42:46;29.33;;;8.52;;
46765;SDS011;32527;51.986;5.842;2023-02-18T12:51:24;17.15;;;8.30;;
46765;SDS011;32527;51.986;5.842;2023-02-18T12:54:05;24.90;;;8.57;;
46765;SDS011;32527;51.986;5.842;2023-02-18T13:12:56;25.17;;;8.65;;
46765;SDS011;32527;51.986;5.842;2023-02-18T13:15:49;17.98;;;7.80;;
46765;SDS011;32527;51.986;5.842;2023-02-18T13:18:31;21.00;;;6.78;;
46765;SDS011;32527;51.986;5.842;2023-02-18T13:26:55;20.38;;;6.80;;
46765;SDS011;32527;51.986;5.842;2023-02-18T13:29:32;26.98;;;7.93;;
46765;SDS011;32527;51.986;5.842;2023-02-18T13:32:12;27.88;;;8.32;;
46765;SDS011;32527;51.986;5.842;2023-02-18T13:40:18;23.08;;;7.07;;
46765;SDS011;32527;51.986;5.842;2023-02-18T13:42:50;22.85;;;6.70;;
46765;SDS011;32527;51.986;5.842;2023-02-18T13:45:30;31.70;;;8.27;;
46765;SDS011;32527;51.986;5.842;2023-02-18T13:47:57;31.52;;;8.73;;
46765;SDS011;32527;51.986;5.842;2023-02-18T13:50:29;23.35;;;8.43;;
46765;SDS011;32527;51.986;5.842;2023-02-18T13:55:25;15.40;;;6.53;;
46765;SDS011;32527;51.986;5.842;2023-02-18T13:57:59;22.65;;;8.07;;
46765;SDS011;32527;51.986;5.842;2023-02-18T14:00:33;20.58;;;6.95;;
46765;SDS011;32527;51.986;5.842;2023-02-18T14:05:54;19.85;;;6.90;;
46765;SDS011;32527;51.986;5.842;2023-02-18T14:08:32;18.50;;;7.93;;
46765;SDS011;32527;51.986;5.842;2023-02-18T14:13:42;22.45;;;7.00;;
46765;SDS011;32527;51.986;5.842;2023-02-18T14:16:09;22.20;;;6.68;;
46765;SDS011;32527;51.986;5.842;2023-02-18T14:21:16;23.15;;;6.75;;
46765;SDS011;32527;51.986;5.842;2023-02-18T14:26:24;32.10;;;7.47;;
46765;SDS011;32527;51.986;5.842;2023-02-18T14:29:03;16.85;;;8.82;;
46765;SDS011;32527;51.986;5.842;2023-02-18T14:32:02;17.15;;;6.65;;
46765;SDS011;32527;51.986;5.842;2023-02-18T14:34:41;25.30;;;8.32;;
46765;SDS011;32527;51.986;5.842;2023-02-18T14:46:39;23.60;;;7.78;;
46765;SDS011;32527;51.986;5.842;2023-02-18T14:52:00;29.20;;;7.45;;
46765;SDS011;32527;51.986;5.842;2023-02-18T14:54:28;14.93;;;6.97;;
46765;SDS011;32527;51.986;5.842;2023-02-18T14:56:55;18.15;;;7.40;;
46765;SDS011;32527;51.986;5.842;2023-02-18T14:59:33;21.20;;;7.15;;
46765;SDS011;32527;51.986;5.842;2023-02-18T15:02:01;24.35;;;8.80;;
46765;SDS011;32527;51.986;5.842;2023-02-18T15:04:27;22.27;;;7.72;;
46765;SDS011;32527;51.986;5.842;2023-02-18T15:10:13;21.10;;;7.30;;
46765;SDS011;32527;51.986;5.842;2023-02-18T15:12:39;27.75;;;8.45;;
46765;SDS011;32527;51.986;5.842;2023-02-18T15:15:06;27.45;;;7.60;;
46765;SDS011;32527;51.986;5.842;2023-02-18T15:17:36;28.65;;;9.30;;
46765;SDS011;32527;51.986;5.842;2023-02-18T15:20:11;23.90;;;7.90;;
46765;SDS011;32527;51.986;5.842;2023-02-18T15:22:37;26.05;;;7.05;;
46765;SDS011;32527;51.986;5.842;2023-02-18T15:25:03;22.80;;;7.88;;
46765;SDS011;32527;51.986;5.842;2023-02-18T15:27:30;25.83;;;7.90;;
46765;SDS011;32527;51.986;5.842;2023-02-18T15:30:15;24.27;;;8.15;;
46765;SDS011;32527;51.986;5.842;2023-02-18T15:32:51;22.17;;;7.90;;
46765;SDS011;32527;51.986;5.842;2023-02-18T15:35:19;26.85;;;8.68;;
46765;SDS011;32527;51.986;5.842;2023-02-18T15:37:50;18.10;;;8.02;;
46765;SDS011;32527;51.986;5.842;2023-02-18T15:40:21;19.30;;;8.55;;
46765;SDS011;32527;51.986;5.842;2023-02-18T15:42:49;24.38;;;9.77;;
46765;SDS011;32527;51.986;5.842;2023-02-18T15:47:43;29.95;;;10.23;;
46765;SDS011;32527;51.986;5.842;2023-02-18T15:50:15;22.73;;;8.45;;
46765;SDS011;32527;51.986;5.842;2023-02-18T15:52:43;24.92;;;9.43;;
46765;SDS011;32527;51.986;5.842;2023-02-18T15:55:14;18.52;;;9.75;;
46765;SDS011;32527;51.986;5.842;2023-02-18T15:57:51;21.48;;;9.23;;
46765;SDS011;32527;51.986;5.842;2023-02-18T16:00:20;17.70;;;9.35;;
46765;SDS011;32527;51.986;5.842;2023-02-18T16:05:36;21.40;;;8.00;;
46765;SDS011;32527;51.986;5.842;2023-02-18T16:08:12;19.70;;;8.73;;
46765;SDS011;32527;51.986;5.842;2023-02-18T16:11:23;27.42;;;9.25;;
46765;SDS011;32527;51.986;5.842;2023-02-18T16:13:31;19.15;;;9.25;;
46765;SDS011;32527;51.986;5.842;2023-02-18T16:15:59;22.88;;;8.98;;
46765;SDS011;32527;51.986;5.842;2023-02-18T16:21:20;25.30;;;10.15;;
46765;SDS011;32527;51.986;5.842;2023-02-18T16:23:59;20.15;;;8.30;;
46765;SDS011;32527;51.986;5.842;2023-02-18T16:26:30;21.75;;;9.02;;
46765;SDS011;32527;51.986;5.842;2023-02-18T16:29:00;21.30;;;10.27;;
46765;SDS011;32527;51.986;5.842;2023-02-18T16:31:34;26.23;;;9.80;;
46765;SDS011;32527;51.986;5.842;2023-02-18T16:34:00;17.83;;;8.15;;
46765;SDS011;32527;51.986;5.842;2023-02-18T16:36:26;16.30;;;8.35;;
46765;SDS011;32527;51.986;5.842;2023-02-18T16:38:52;18.70;;;8.85;;
46765;SDS011;32527;51.986;5.842;2023-02-18T16:41:18;24.35;;;8.70;;
46765;SDS011;32527;51.986;5.842;2023-02-18T16:43:44;19.42;;;8.80;;
46765;SDS011;32527;51.986;5.842;2023-02-18T16:46:14;22.10;;;9.13;;
46765;SDS011;32527;51.986;5.842;2023-02-18T16:48:43;30.00;;;10.07;;
46765;SDS011;32527;51.986;5.842;2023-02-18T16:53:45;28.05;;;11.30;;
46765;SDS011;32527;51.986;5.842;2023-02-18T16:56:16;23.13;;;10.98;;
46765;SDS011;32527;51.986;5.842;2023-02-18T16:58:44;25.20;;;10.35;;
46765;SDS011;32527;51.986;5.842;2023-02-18T17:01:32;22.38;;;10.55;;
46765;SDS011;32527;51.986;5.842;2023-02-18T17:03:57;28.70;;;10.38;;
46765;SDS011;32527;51.986;5.842;2023-02-18T17:06:24;25.67;;;9.48;;
46765;SDS011;32527;51.986;5.842;2023-02-18T17:08:50;22.50;;;9.63;;
46765;SDS011;32527;51.986;5.842;2023-02-18T17:11:23;22.08;;;9.35;;
46765;SDS011;32527;51.986;5.842;2023-02-18T17:13:52;28.17;;;9.65;;
46765;SDS011;32527;51.986;5.842;2023-02-18T17:16:19;35.25;;;9.95;;
46765;SDS011;32527;51.986;5.842;2023-02-18T17:18:46;25.33;;;9.98;;
46765;SDS011;32527;51.986;5.842;2023-02-18T17:21:13;24.77;;;10.93;;
46765;SDS011;32527;51.986;5.842;2023-02-18T17:27:11;24.13;;;11.25;;
46765;SDS011;32527;51.986;5.842;2023-02-18T17:29:37;25.65;;;10.50;;
46765;SDS011;32527;51.986;5.842;2023-02-18T17:32:04;27.00;;;10.80;;
46765;SDS011;32527;51.986;5.842;2023-02-18T17:34:31;21.85;;;10.57;;
46765;SDS011;32527;51.986;5.842;2023-02-18T17:36:59;26.80;;;12.00;;
46765;SDS011;32527;51.986;5.842;2023-02-18T17:39:26;28.42;;;11.98;;
46765;SDS011;32527;51.986;5.842;2023-02-18T17:41:52;30.48;;;11.50;;
46765;SDS011;32527;51.986;5.842;2023-02-18T17:44:19;26.70;;;12.45;;
46765;SDS011;32527;51.986;5.842;2023-02-18T17:46:46;22.63;;;12.50;;
46765;SDS011;32527;51.986;5.842;2023-02-18T17:49:14;31.90;;;12.65;;